Ever Fortune — V3WZ5 — position and weather

sailwx.info

Track history (hours):
 
Tides and Currents Weather Stations Pressure Air Temp Water Temp Dewpoint Dewpoint Depression Visibility Wind Speed Wind Dir Waves Ship Positions

Ever Fortune

Last reported at 2017-Nov-18 05:59 UTC. Time now 2017-Nov-18 06:23 UTC.
Position N 35°24' E 139°49'.

Length 83 m; draft 5.2 m.

Type: Cargo ship. MMSI: 312423000.

Date/timePositionNaut miles runAvg speedWind from/ knotsBaromVisibWave heightAir tempDewpointWater temp
2017-Nov-18 05:59N 35°24' E 139°49'4 7.8
2017-Nov-18 05:30N 35°20' E 139°49'1 1.8
2017-Nov-18 05:00N 35°20' E 139°50'0 0.0
2017-Nov-18 04:30N 35°20' E 139°50'0 0.0
2017-Nov-18 04:00N 35°20' E 139°50'0 0.0
2017-Nov-18 03:30N 35°20' E 139°50'0 0.0
2017-Nov-18 03:00N 35°20' E 139°50'0 0.0
2017-Nov-18 02:30N 35°20' E 139°50'0 0.0
2017-Nov-18 02:00N 35°20' E 139°50'0 0.0
2017-Nov-18 01:30N 35°20' E 139°50'0 0.0
2017-Nov-18 01:00N 35°20' E 139°50'0 0.0
2017-Nov-18 00:30N 35°20' E 139°50'0 0.0
2017-Nov-18 00:00N 35°20' E 139°50'0 0.0
2017-Nov-17 23:24N 35°20' E 139°50'0 0.0
2017-Nov-17 23:00N 35°20' E 139°50'0 0.0
2017-Nov-17 22:30N 35°20' E 139°50'0 0.1
2017-Nov-17 22:00N 35°20' E 139°50'1 2.5
2017-Nov-17 21:30N 35°21' E 139°49'4 7.1
2017-Nov-17 20:56N 35°25' E 139°51'0 0.1
2017-Nov-17 19:07N 35°25' E 139°51'0 2.7
2017-Nov-17 18:57N 35°25' E 139°50'2 3.9
2017-Nov-17 18:30N 35°25' E 139°48'3 6.6
2017-Nov-17 18:01N 35°22' E 139°45'4 7.9
2017-Nov-17 17:30N 35°18' E 139°44'4 8.4
2017-Nov-17 17:00N 35°15' E 139°47'4 8.2
2017-Nov-17 16:30N 35°10' E 139°47'4 7.5
2017-Nov-17 16:00N 35°07' E 139°45'4 7.4
2017-Nov-17 15:30N 35°04' E 139°42'4 7.3
2017-Nov-17 15:00N 35°02' E 139°39'4 7.8
2017-Nov-17 14:30N 34°59' E 139°35'  
2017-Nov-11 07:20N 31°03' E 122°13'3 4.8
2017-Nov-11 06:45N 31°03' E 122°10'4 6.1
2017-Nov-11 06:02N 31°04' E 122°05'3 6.7
2017-Nov-11 05:38N 31°05' E 122°02'1 7.2
2017-Nov-11 05:30N 31°05' E 122°01'4 8.0
2017-Nov-11 04:59N 31°07' E 121°56'13 9.4
2017-Nov-11 03:37N 31°16' E 121°46'110.1
2017-Nov-11 03:30N 31°17' E 121°45'5 9.7
2017-Nov-11 03:00N 31°20' E 121°41'5 9.8
2017-Nov-11 02:30N 31°23' E 121°36'5 9.9
2017-Nov-11 02:00N 31°25' E 121°31'5 9.4
2017-Nov-11 01:30N 31°28' E 121°27'4 8.9
2017-Nov-11 01:00N 31°31' E 121°23'4 8.6
2017-Nov-11 00:30N 31°34' E 121°19'4 8.3
2017-Nov-11 00:00N 31°37' E 121°16'4 8.1
2017-Nov-10 23:29N 31°40' E 121°12'  
Track history (hours):
 
Tides and Currents Weather Stations Pressure Air Temp Water Temp Dewpoint Dewpoint Depression Visibility Wind Speed Wind Dir Waves Ship Positions

Ever Fortune

Last reported at 2017-Nov-18 05:59 UTC. Time now 2017-Nov-18 06:23 UTC.
Position N 35°24' E 139°49'.

Length 83 m; draft 5.2 m.

Type: Cargo ship. MMSI: 312423000.

Date/timePositionNaut miles runAvg speedWind from/ knotsBaromVisibWave heightAir tempDewpointWater temp
2017-Nov-18 05:59N 35°24' E 139°49'4 7.8
2017-Nov-18 05:30N 35°20' E 139°49'1 1.8
2017-Nov-18 05:00N 35°20' E 139°50'0 0.0
2017-Nov-18 04:30N 35°20' E 139°50'0 0.0
2017-Nov-18 04:00N 35°20' E 139°50'0 0.0
2017-Nov-18 03:30N 35°20' E 139°50'0 0.0
2017-Nov-18 03:00N 35°20' E 139°50'0 0.0
2017-Nov-18 02:30N 35°20' E 139°50'0 0.0
2017-Nov-18 02:00N 35°20' E 139°50'0 0.0
2017-Nov-18 01:30N 35°20' E 139°50'0 0.0
2017-Nov-18 01:00N 35°20' E 139°50'0 0.0
2017-Nov-18 00:30N 35°20' E 139°50'0 0.0
2017-Nov-18 00:00N 35°20' E 139°50'0 0.0
2017-Nov-17 23:24N 35°20' E 139°50'0 0.0
2017-Nov-17 23:00N 35°20' E 139°50'0 0.0
2017-Nov-17 22:30N 35°20' E 139°50'0 0.1
2017-Nov-17 22:00N 35°20' E 139°50'1 2.5
2017-Nov-17 21:30N 35°21' E 139°49'4 7.1
2017-Nov-17 20:56N 35°25' E 139°51'0 0.1
2017-Nov-17 19:07N 35°25' E 139°51'0 2.7
2017-Nov-17 18:57N 35°25' E 139°50'2 3.9
2017-Nov-17 18:30N 35°25' E 139°48'3 6.6
2017-Nov-17 18:01N 35°22' E 139°45'4 7.9
2017-Nov-17 17:30N 35°18' E 139°44'4 8.4
2017-Nov-17 17:00N 35°15' E 139°47'4 8.2
2017-Nov-17 16:30N 35°10' E 139°47'4 7.5
2017-Nov-17 16:00N 35°07' E 139°45'4 7.4
2017-Nov-17 15:30N 35°04' E 139°42'4 7.3
2017-Nov-17 15:00N 35°02' E 139°39'4 7.8
2017-Nov-17 14:30N 34°59' E 139°35'  
2017-Nov-11 07:20N 31°03' E 122°13'3 4.8
2017-Nov-11 06:45N 31°03' E 122°10'4 6.1
2017-Nov-11 06:02N 31°04' E 122°05'3 6.7
2017-Nov-11 05:38N 31°05' E 122°02'1 7.2
2017-Nov-11 05:30N 31°05' E 122°01'4 8.0
2017-Nov-11 04:59N 31°07' E 121°56'13 9.4
2017-Nov-11 03:37N 31°16' E 121°46'110.1
2017-Nov-11 03:30N 31°17' E 121°45'5 9.7
2017-Nov-11 03:00N 31°20' E 121°41'5 9.8
2017-Nov-11 02:30N 31°23' E 121°36'5 9.9
2017-Nov-11 02:00N 31°25' E 121°31'5 9.4
2017-Nov-11 01:30N 31°28' E 121°27'4 8.9
2017-Nov-11 01:00N 31°31' E 121°23'4 8.6
2017-Nov-11 00:30N 31°34' E 121°19'4 8.3
2017-Nov-11 00:00N 31°37' E 121°16'4 8.1
2017-Nov-10 23:29N 31°40' E 121°12'  

Dump ship's entire track history